الصفحة الرئيسية
METAR-TAF:

METAR-TAF

مطار :

جونو, ألاسكا, الولايات المتحدة

دائرة عرض: 58-21-17N, خط طول: 134-34-34W, ارتفاع: 6 متر

مراقبة الطقس الحالي

تاريخ ووقت الإصدار 25 دقيقة قبل الساعة 10:53UTC
ريح 5 عقدة من الجنوب الشرقي
درجة الحرارة 3°درجة مئوية
الرطوبة 100%
ضغط 1000 hPa
الرؤية: 16.1 كم
غيوم قليلة على ارتفاع 100 قدم
غيوم مفككة على ارتفاع 11000 قدم

METAR: PAJN 161053Z 13005KT 10SM FEW001 BKN110 03/03 A2952 RMK AO2 SLP997 T00280028

زمن: 02:18 (11:18 UTC)

توقعات

تاريخ ووقت الإصدار 5ساعات و 45 دقيقة قبل الساعة 05:33UTC
التوقعات صالحة من16 الساعة 06 UTC إلى 17 الساعة 06 UTC
ريح 5 عقدة من الشرق
الرؤية: 10 كم
غيوم قليلة على ارتفاع 5000 قدم
ملبد بالغيوم على ارتفاع 10000 قدم
من 16 الساعة 1500 UTC
ريح 12 عقدة من الشرق/الجنوب الشرقي
الرؤية: 8.0 كم
غيوم متفرقة على ارتفاع 700 قدم
غيوم مفككة على ارتفاع 2500 قدم
ملبد بالغيوم على ارتفاع 5000 قدم
مطر خفيف, غشاء

TAF: PAJN 160533Z 1606/1706 10005KT P6SM FEW050 OVC100 FM161500 11012KT 5SM -RA BR SCT007 BKN025 OVC050 WS020/14040KT

أرصاد الطقس والتوقعات من أكثر من 4000 مطار (تقارير الطقس للمطار METAR والتنبؤ بالطقس بالمطارTAF).

المحطات المتاحة هي النقط الصفراء والحمراء على الخريطة.

حرك المؤشر فوق النقطة لمعرفة اسم المحطة.

ثم انقر لمعرفة أرصاد وتوقعات الطقس.

لتغيير الخارطة: اضغط على الأزرار الخضراء مع رمز الصليب الأسود للتكبير. على الزر الأخضر مع شرطة للتصغير، أو على الأسهم الخضراء للخرائط المجاورة.


METAR-TAF: